Time;durP1;ratioP1;P1;durP2;ratioP2;P2;SDS_P1;SDS_P2;PMS_P1;PMS_P2;Temp;Humidity;BMP_temperature;BMP_pressure;BME280_temperature;BME280_humidity;BME280_pressure;Samples;Min_cycle;Max_cycle;Signal;HPM_P1;HPM_P2
2023/08/18 00:00:47;;;;;;;3.53;1.60;;;;;;;25.51;49.11;99649.72;5093174;28;20020;-86
2023/08/18 00:03:14;;;;;;;2.85;1.50;;;;;;;25.17;49.30;99605.56;5093422;28;20032;-87
2023/08/18 00:05:39;;;;;;;1.88;1.25;;;;;;;25.57;49.52;99661.88;5092868;28;20035;-87
2023/08/18 00:08:17;;;;;;;2.83;1.27;;;;;;;25.18;49.11;99635.13;5093067;28;20107;-87
2023/08/18 00:10:42;;;;;;;4.78;2.00;;;;;;;25.34;48.97;99645.63;5093095;28;20106;-87
2023/08/18 00:13:07;;;;;;;2.08;1.40;;;;;;;25.08;49.50;99628.72;5093396;28;20115;-87
2023/08/18 00:15:33;;;;;;;2.20;1.23;;;;;;;24.99;49.04;99624.91;5093096;28;20660;-86
2023/08/18 00:18:09;;;;;;;3.03;1.55;;;;;;;24.99;49.07;99637.50;5091980;28;20036;-88
2023/08/18 00:20:34;;;;;;;7.20;1.90;;;;;;;25.28;48.98;99658.72;5093221;28;20028;-87
2023/08/18 00:22:59;;;;;;;2.63;1.52;;;;;;;24.97;48.98;99626.84;5093879;28;20077;-87
2023/08/18 00:25:25;;;;;;;1.17;0.98;;;;;;;24.75;48.64;99581.75;5092173;28;20096;-87
2023/08/18 00:27:54;;;;;;;2.35;1.20;;;;;;;24.92;48.50;99606.59;5092069;28;20081;-87
2023/08/18 00:30:24;;;;;;;1.60;1.35;;;;;;;25.08;48.69;99631.41;5092316;28;20055;-87
2023/08/18 00:32:50;;;;;;;5.45;1.85;;;;;;;25.04;47.78;99648.84;5092496;28;20023;-86
2023/08/18 00:35:15;;;;;;;2.60;1.60;;;;;;;24.83;47.59;99613.53;5092117;28;20043;-87
2023/08/18 00:37:42;;;;;;;5.50;0.93;;;;;;;24.95;48.15;99639.59;5092274;28;20031;-87
2023/08/18 00:43:29;;;;;;;1.50;1.00;;;;;;;24.78;48.40;99624.69;5093025;28;20038;-86
2023/08/18 00:45:55;;;;;;;2.22;1.15;;;;;;;24.83;48.25;99638.66;5092964;28;20114;-86
2023/08/18 00:51:56;;;;;;;1.88;1.58;;;;;;;24.58;48.15;99611.84;5093019;28;20179;-87
2023/08/18 00:57:47;;;;;;;2.53;1.38;;;;;;;24.57;48.45;99621.75;5113135;28;20047;-86
2023/08/18 01:00:55;;;;;;;1.35;0.85;;;;;;;24.91;48.33;99659.66;5113390;28;20031;-86
2023/08/18 01:06:42;;;;;;;1.88;1.08;;;;;;;24.67;48.54;99640.81;5113049;28;20092;-86
2023/08/18 01:12:52;;;;;;;2.05;1.05;;;;;;;24.81;47.91;99648.72;5112804;28;20038;-88
2023/08/18 01:15:32;;;;;;;1.17;0.82;;;;;;;24.64;47.90;99624.88;5112099;28;20132;-87
2023/08/18 01:18:01;;;;;;;2.47;1.27;;;;;;;24.73;47.56;99632.25;5112158;28;20023;-88
2023/08/18 01:20:28;;;;;;;4.20;1.83;;;;;;;24.75;47.52;99649.19;5111958;28;20565;-88
2023/08/18 01:22:57;;;;;;;2.47;1.20;;;;;;;24.64;47.84;99643.75;5111996;28;20066;-88
2023/08/18 01:25:24;;;;;;;1.83;1.38;;;;;;;24.47;48.19;99644.97;5107778;28;20032;-89
2023/08/18 01:27:50;;;;;;;2.25;1.50;;;;;;;24.43;48.00;99620.03;5106902;28;20027;-88
2023/08/18 01:30:16;;;;;;;3.13;1.55;;;;;;;24.47;47.95;99607.22;5111361;28;20058;-89
2023/08/18 01:33:28;;;;;;;3.42;1.45;;;;;;;24.79;47.75;99664.16;5111570;28;20070;-87
2023/08/18 01:35:58;;;;;;;4.22;1.35;;;;;;;24.60;47.41;99632.31;5111222;28;20031;-86
2023/08/18 01:38:25;;;;;;;2.63;1.80;;;;;;;24.53;48.35;99654.41;5112100;28;20036;-86
2023/08/18 01:40:51;;;;;;;1.50;1.23;;;;;;;24.48;48.30;99634.06;5111633;28;20027;-85
2023/08/18 01:43:17;;;;;;;1.38;1.27;;;;;;;24.40;48.17;99640.97;5111874;28;20416;-86
2023/08/18 01:45:43;;;;;;;1.42;1.27;;;;;;;24.48;47.78;99641.25;5111847;28;20165;-86
2023/08/18 01:48:09;;;;;;;2.00;1.20;;;;;;;24.36;48.26;99632.28;5092723;28;20534;-88
2023/08/18 01:50:34;;;;;;;1.83;1.20;;;;;;;24.59;47.84;99651.28;5111102;28;20035;-88
2023/08/18 01:53:00;;;;;;;4.47;1.80;;;;;;;24.34;47.81;99623.41;5110860;28;20172;-88
2023/08/18 01:55:25;;;;;;;1.55;1.13;;;;;;;24.60;47.89;99645.78;5110524;28;20519;-88
2023/08/18 01:57:51;;;;;;;1.13;0.85;;;;;;;24.63;47.70;99660.88;5111028;28;20083;-88
2023/08/18 02:00:16;;;;;;;2.35;1.20;;;;;;;24.63;48.05;99650.94;5105064;28;20031;-87
2023/08/18 02:02:42;;;;;;;1.58;1.15;;;;;;;24.44;47.89;99619.06;5092223;28;20032;-89
2023/08/18 02:05:07;;;;;;;4.57;1.50;;;;;;;24.29;48.18;99610.28;5111048;28;20032;-88
2023/08/18 02:07:32;;;;;;;2.13;1.80;;;;;;;24.57;47.79;99632.53;5110879;28;20024;-88
2023/08/18 02:09:58;;;;;;;5.75;1.52;;;;;;;24.15;48.46;99596.13;5110264;28;20070;-88
2023/08/18 02:12:25;;;;;;;1.85;1.42;;;;;;;24.37;48.61;99636.66;5092594;28;20528;-88
2023/08/18 02:14:50;;;;;;;1.33;1.10;;;;;;;24.06;48.87;99593.09;5110007;28;20032;-87
2023/08/18 02:17:16;;;;;;;4.43;2.10;;;;;;;24.30;48.77;99619.25;5110886;28;20022;-88
2023/08/18 02:19:41;;;;;;;1.38;1.10;;;;;;;23.98;48.84;99598.19;5109903;28;20024;-88
2023/08/18 02:22:07;;;;;;;2.20;1.30;;;;;;;24.24;48.87;99608.91;5094216;28;20031;-88
2023/08/18 02:24:32;;;;;;;1.77;0.85;;;;;;;24.17;49.26;99634.56;5115103;28;20027;-88
2023/08/18 02:26:59;;;;;;;1.83;1.60;;;;;;;24.26;49.42;99632.06;5114856;28;20081;-88
2023/08/18 02:29:25;;;;;;;1.90;1.48;;;;;;;23.99;50.84;99651.09;5115089;28;20074;-88
2023/08/18 02:31:52;;;;;;;2.03;1.05;;;;;;;23.88;50.78;99611.47;5115008;28;20131;-89
2023/08/18 02:34:18;;;;;;;2.03;1.50;;;;;;;23.93;51.19;99616.53;5114381;28;20033;-89
2023/08/18 02:36:44;;;;;;;2.30;1.38;;;;;;;24.07;50.47;99643.31;5114708;28;20027;-88
2023/08/18 02:39:09;;;;;;;1.98;1.40;;;;;;;23.83;50.87;99602.81;5114915;28;20470;-88
2023/08/18 02:41:35;;;;;;;3.15;2.33;;;;;;;24.08;51.81;99636.09;5114877;28;20412;-88
2023/08/18 02:44:00;;;;;;;1.75;1.35;;;;;;;23.64;53.09;99616.72;5115485;28;20031;-87
2023/08/18 02:46:25;;;;;;;2.08;1.63;;;;;;;23.67;53.53;99635.34;5115271;28;20032;-87
2023/08/18 02:48:51;;;;;;;1.38;0.98;;;;;;;23.50;53.75;99615.00;5114829;28;20507;-88
2023/08/18 02:51:16;;;;;;;2.15;1.65;;;;;;;;;;5115184;28;20031;-87
2023/08/18 02:53:43;;;;;;;1.52;1.20;;;;;;;23.60;53.71;99631.38;5116086;28;20035;-87
2023/08/18 02:56:18;;;;;;;8.13;1.85;;;;;;;23.85;53.69;99664.66;5115448;28;20028;-89
2023/08/18 02:58:44;;;;;;;1.65;1.20;;;;;;;23.85;53.67;99660.16;5115351;28;20054;-88
2023/08/18 03:01:09;;;;;;;2.28;1.13;;;;;;;23.77;54.04;99649.03;5114740;28;20497;-89
2023/08/18 03:03:35;;;;;;;3.80;2.35;;;;;;;23.62;54.05;99632.13;5114560;28;20028;-88
2023/08/18 03:06:07;;;;;;;2.20;1.33;;;;;;;23.65;54.40;99626.53;5114477;28;20028;-86
2023/08/18 03:08:35;;;;;;;2.42;1.73;;;;;;;23.53;54.34;99616.63;5115312;28;20412;-87
2023/08/18 03:11:01;;;;;;;2.83;1.65;;;;;;;23.62;54.49;99640.22;5096364;28;20385;-90
2023/08/18 03:13:28;;;;;;;2.53;1.90;;;;;;;23.35;54.79;99599.94;5114721;28;20030;-90
2023/08/18 03:15:53;;;;;;;2.65;1.73;;;;;;;23.60;54.92;99632.25;5113943;28;20047;-89
2023/08/18 03:18:20;;;;;;;2.65;1.85;;;;;;;23.56;54.82;99635.25;5114047;28;20035;-89
2023/08/18 03:20:49;;;;;;;1.88;1.35;;;;;;;23.51;54.96;99653.53;5113991;28;20469;-89
2023/08/18 03:23:17;;;;;;;2.17;1.33;;;;;;;23.33;55.50;99626.09;5114445;28;20059;-89
2023/08/18 03:25:43;;;;;;;4.80;1.58;;;;;;;23.37;55.89;99643.72;5114303;28;20054;-89
2023/08/18 03:28:13;;;;;;;1.75;1.35;;;;;;;23.29;55.74;99632.66;5114747;28;20495;-90
2023/08/18 03:30:39;;;;;;;2.13;1.15;;;;;;;23.17;56.36;99651.38;5095941;28;20039;-87
2023/08/18 03:33:06;;;;;;;2.53;1.67;;;;;;;22.71;57.17;99616.78;5113748;28;20114;-86
2023/08/18 03:35:32;;;;;;;3.95;2.20;;;;;;;22.83;57.86;99626.72;5113977;28;20439;-86
2023/08/18 03:38:04;;;;;;;6.18;3.05;;;;;;;22.91;57.60;99642.34;5095587;28;20020;-86
2023/08/18 03:40:29;;;;;;;4.80;1.30;;;;;;;23.13;57.96;99665.97;5114001;28;20549;-86
2023/08/18 03:42:54;;;;;;;5.65;2.92;;;;;;;23.00;57.89;99647.09;5113857;28;20032;-91
2023/08/18 03:45:20;;;;;;;3.10;2.60;;;;;;;23.07;58.16;99669.06;5094428;28;20035;-91
2023/08/18 03:47:46;;;;;;;3.70;2.13;;;;;;;22.92;58.54;99654.78;5114281;28;20034;-95
2023/08/18 03:50:11;;;;;;;3.08;2.30;;;;;;;22.88;59.12;99658.69;5096040;28;20042;-86
2023/08/18 03:53:00;;;;;;;2.30;1.88;;;;;;;22.95;59.23;99659.97;5113767;28;20192;-89
2023/08/18 03:55:25;;;;;;;3.80;2.33;;;;;;;22.79;59.13;99621.66;5113325;28;20171;-87
2023/08/18 03:57:51;;;;;;;8.15;2.85;;;;;;;22.83;59.26;99633.91;5113027;28;20144;-88
2023/08/18 04:00:17;;;;;;;4.47;2.80;;;;;;;23.20;59.50;99678.06;5113147;28;20430;-87
2023/08/18 04:02:43;;;;;;;2.88;1.88;;;;;;;23.31;59.27;99689.91;5113205;28;20027;-88
2023/08/18 04:05:09;;;;;;;2.92;2.30;;;;;;;23.41;59.17;99680.25;5112941;28;20055;-90
2023/08/18 04:07:35;;;;;;;5.88;3.47;;;;;;;23.09;59.19;99617.88;5093938;28;20078;-90
2023/08/18 04:10:00;;;;;;;11.15;3.67;;;;;;;23.16;59.80;99662.22;5111546;28;20027;-90
2023/08/18 04:12:26;;;;;;;2.42;1.55;;;;;;;23.24;59.13;99687.63;5111462;28;20059;-90
2023/08/18 04:14:51;;;;;;;5.53;2.75;;;;;;;22.90;57.53;99619.09;5111339;28;20444;-90
2023/08/18 04:17:17;;;;;;;8.30;5.18;;;;;;;23.12;56.83;99666.09;5112218;28;20032;-88
2023/08/18 04:19:42;;;;;;;11.98;5.50;;;;;;;22.92;57.08;99648.56;5112007;28;20076;-90
2023/08/18 04:22:08;;;;;;;19.50;6.35;;;;;;;22.78;57.53;99653.03;5110889;28;20035;-89
2023/08/18 04:24:33;;;;;;;22.67;6.40;;;;;;;22.74;57.72;99662.28;5112464;28;20532;-89
2023/08/18 04:27:02;;;;;;;8.63;4.03;;;;;;;22.74;58.10;99659.59;5111734;28;20045;-91
2023/08/18 04:29:27;;;;;;;30.38;4.28;;;;;;;22.81;57.78;99665.41;5111321;28;20051;-89
2023/08/18 04:31:53;;;;;;;13.25;7.45;;;;;;;23.01;57.25;99681.06;5109543;28;20473;-88
2023/08/18 04:34:19;;;;;;;8.13;5.03;;;;;;;23.05;56.79;99654.84;5111797;28;20042;-88
2023/08/18 04:36:44;;;;;;;12.38;4.32;;;;;;;23.03;57.41;99657.66;5112145;28;20405;-88
2023/08/18 04:39:11;;;;;;;10.02;2.42;;;;;;;23.04;57.95;99667.41;5111153;28;20027;-90
2023/08/18 04:41:36;;;;;;;4.70;2.72;;;;;;;23.24;57.59;99662.56;5112374;28;20063;-88
2023/08/18 04:44:03;;;;;;;5.10;2.55;;;;;;;23.52;57.37;99683.03;5111889;28;20836;-88
2023/08/18 04:46:28;;;;;;;2.88;1.80;;;;;;;23.52;57.84;99676.81;5111503;28;20034;-87
2023/08/18 04:48:54;;;;;;;2.90;1.83;;;;;;;23.74;57.53;99693.22;5111932;28;20036;-87
2023/08/18 04:51:19;;;;;;;2.72;1.92;;;;;;;23.66;57.05;99673.16;5111864;28;20039;-88
2023/08/18 04:53:45;;;;;;;4.03;2.53;;;;;;;23.77;56.64;99675.94;5112019;28;20031;-88
2023/08/18 04:56:10;;;;;;;3.33;1.75;;;;;;;23.78;56.13;99664.22;5112431;28;20031;-91
2023/08/18 04:58:36;;;;;;;2.53;1.58;;;;;;;23.94;56.01;99678.38;5093011;28;20465;-89
2023/08/18 05:01:02;;;;;;;2.85;1.63;;;;;;;24.35;55.27;99707.84;5111244;28;20106;-87
2023/08/18 05:03:28;;;;;;;3.15;2.05;;;;;;;24.23;55.61;99675.41;5111855;28;20127;-87
2023/08/18 05:05:56;;;;;;;3.08;1.85;;;;;;;24.15;56.16;99711.97;5111050;28;20027;-87
2023/08/18 05:08:22;;;;;;;2.47;1.77;;;;;;;24.13;55.97;99669.81;5089551;28;20035;-87
2023/08/18 05:10:47;;;;;;;1.63;1.52;;;;;;;24.20;55.65;99664.84;5102479;28;20028;-87
2023/08/18 05:13:12;;;;;;;2.95;2.42;;;;;;;24.43;55.35;99667.72;5111898;28;20024;-87
2023/08/18 05:15:38;;;;;;;4.93;2.95;;;;;;;24.52;55.89;99683.22;5110836;28;20077;-89
2023/08/18 05:18:04;;;;;;;2.58;1.52;;;;;;;24.55;55.39;99690.22;5110809;28;20397;-88
2023/08/18 05:20:29;;;;;;;6.47;2.72;;;;;;;24.57;56.37;99686.44;5109857;28;20031;-89
2023/08/18 05:22:55;;;;;;;3.75;2.03;;;;;;;25.10;55.34;99706.84;5111010;28;20023;-91
2023/08/18 05:25:20;;;;;;;5.25;1.73;;;;;;;24.93;55.83;99695.50;5110464;28;20035;-88
2023/08/18 05:27:47;;;;;;;4.35;2.17;;;;;;;25.00;55.11;99685.97;5099417;28;20125;-88
2023/08/18 05:30:12;;;;;;;8.18;2.47;;;;;;;25.07;55.04;99659.41;5101095;28;20023;-88
2023/08/18 05:32:38;;;;;;;4.70;2.53;;;;;;;25.17;54.88;99700.03;5110764;28;20028;-87
2023/08/18 05:35:04;;;;;;;7.03;2.38;;;;;;;25.14;54.26;99674.13;5110237;28;20035;-89
2023/08/18 05:37:29;;;;;;;3.22;2.15;;;;;;;25.37;53.88;99666.13;5090582;28;20031;-88
2023/08/18 05:39:56;;;;;;;4.00;2.08;;;;;;;25.50;53.33;99677.72;5097686;28;20016;-88
2023/08/18 05:42:21;;;;;;;3.00;1.40;;;;;;;25.77;52.85;99687.34;5110607;28;20023;-89
2023/08/18 05:44:47;;;;;;;6.57;2.70;;;;;;;25.56;52.03;99660.16;5111128;28;20027;-84
2023/08/18 05:47:12;;;;;;;8.15;2.33;;;;;;;25.95;51.38;99679.63;5111559;28;20051;-86
2023/08/18 05:49:38;;;;;;;4.05;2.15;;;;;;;26.23;51.28;99682.84;5110762;28;20027;-86
2023/08/18 05:52:04;;;;;;;2.70;1.67;;;;;;;26.31;50.31;99676.81;5107420;28;20036;-90
2023/08/18 05:54:29;;;;;;;8.85;2.65;;;;;;;26.73;50.14;99702.22;5101613;28;20539;-91
2023/08/18 05:56:55;;;;;;;4.32;2.33;;;;;;;26.82;49.83;99662.72;5110473;28;20078;-86
2023/08/18 05:59:20;;;;;;;3.75;2.58;;;;;;;26.94;48.20;99667.13;5109581;28;20433;-93
2023/08/18 06:01:46;;;;;;;3.33;1.90;;;;;;;26.93;47.61;99642.88;5112947;28;20034;-92
2023/08/18 06:04:12;;;;;;;5.18;2.70;;;;;;;27.24;47.36;99697.13;5096808;28;20032;-92
2023/08/18 06:06:38;;;;;;;3.47;1.90;;;;;;;27.36;47.36;99682.59;5114761;28;20035;-94
2023/08/18 06:09:03;;;;;;;6.30;1.85;;;;;;;27.44;48.01;99687.34;5096116;28;20051;-95
2023/08/18 06:11:29;;;;;;;12.45;3.00;;;;;;;27.35;47.17;99675.44;5115858;28;20472;-95
2023/08/18 06:13:55;;;;;;;5.68;1.42;;;;;;;27.59;46.90;99687.84;5100665;28;20036;-96
2023/08/18 06:16:20;;;;;;;4.18;1.85;;;;;;;27.40;47.19;99684.03;5114384;28;20047;-94
2023/08/18 06:18:47;;;;;;;3.33;2.55;;;;;;;27.69;47.49;99677.94;5111648;28;20054;-90
2023/08/18 06:21:12;;;;;;;6.63;1.95;;;;;;;27.99;46.15;99674.44;5110573;28;20203;-89
2023/08/18 06:23:37;;;;;;;3.97;2.58;;;;;;;28.28;45.95;99659.28;5109004;28;20549;-91
2023/08/18 06:26:03;;;;;;;2.65;2.15;;;;;;;28.58;45.39;99669.22;5109770;28;20205;-92
2023/08/18 06:28:29;;;;;;;2.97;2.08;;;;;;;28.70;44.33;99688.97;5107714;28;20023;-89
2023/08/18 06:31:05;;;;;;;6.65;2.03;;;;;;;28.90;44.09;99700.72;5089478;28;20070;-90
2023/08/18 06:33:33;;;;;;;15.25;3.95;;;;;;;28.92;45.29;99707.72;5082646;28;20386;-83
2023/08/18 06:35:59;;;;;;;4.95;2.00;;;;;;;29.02;43.67;99687.88;5089650;28;20051;-87
2023/08/18 06:38:24;;;;;;;6.45;2.60;;;;;;;29.03;43.83;99676.03;5104707;28;20078;-87
2023/08/18 06:40:50;;;;;;;7.78;2.40;;;;;;;29.28;43.54;99675.47;5089601;28;20050;-85
2023/08/18 06:43:15;;;;;;;4.03;2.45;;;;;;;29.67;41.62;99673.69;5089743;28;20060;-86
2023/08/18 06:45:41;;;;;;;6.97;3.05;;;;;;;29.65;42.00;99699.16;5089811;28;20036;-83
2023/08/18 06:48:06;;;;;;;3.70;3.05;;;;;;;29.69;42.46;99649.94;5089394;28;20489;-86
2023/08/18 06:50:31;;;;;;;2.22;1.58;;;;;;;30.17;42.19;99690.59;5089707;28;20111;-85
2023/08/18 06:52:57;;;;;;;2.33;1.40;;;;;;;30.29;41.03;99665.91;5070593;28;20233;-84
2023/08/18 06:55:22;;;;;;;2.97;1.75;;;;;;;30.25;39.67;99667.25;5089606;28;20032;-86
2023/08/18 06:57:48;;;;;;;5.00;2.47;;;;;;;30.53;40.74;99668.13;5089656;28;20024;-89
2023/08/18 07:00:15;;;;;;;7.25;2.28;;;;;;;30.67;39.92;99648.53;5090185;28;20448;-84
2023/08/18 07:02:40;;;;;;;3.22;2.13;;;;;;;30.81;38.74;99668.91;5109000;28;20027;-85
2023/08/18 07:05:06;;;;;;;5.35;2.60;;;;;;;31.02;39.33;99670.53;5108914;28;20151;-84
2023/08/18 07:07:34;;;;;;;2.40;1.63;;;;;;;31.41;38.78;99683.81;5109520;28;20035;-85
2023/08/18 07:09:59;;;;;;;4.03;2.35;;;;;;;31.33;38.54;99681.88;5112189;28;20023;-85
2023/08/18 07:12:24;;;;;;;2.08;1.48;;;;;;;31.45;37.97;99665.25;5113419;28;20477;-86
2023/08/18 07:14:50;;;;;;;2.17;1.92;;;;;;;31.59;38.52;99662.00;5112547;28;20469;-87
2023/08/18 07:17:17;;;;;;;2.65;1.75;;;;;;;32.04;36.95;99662.75;5112835;28;20526;-85
2023/08/18 07:19:43;;;;;;;4.20;1.80;;;;;;;32.34;36.94;99663.28;5112121;28;20511;-85
2023/08/18 07:22:09;;;;;;;2.78;2.10;;;;;;;32.92;36.15;99681.56;5112730;28;20604;-86
2023/08/18 07:24:35;;;;;;;6.05;1.75;;;;;;;32.56;35.62;99667.28;5100355;28;20047;-86
2023/08/18 07:27:00;;;;;;;2.58;1.80;;;;;;;32.82;33.70;99681.69;5110810;28;20036;-85
2023/08/18 07:29:26;;;;;;;2.70;1.60;;;;;;;32.69;34.83;99658.63;5112032;28;20031;-85
2023/08/18 07:31:51;;;;;;;2.65;1.63;;;;;;;32.50;34.66;99666.06;5112990;28;20043;-86
2023/08/18 07:34:17;;;;;;;3.80;1.42;;;;;;;32.67;34.85;99650.59;5112537;28;20049;-85
2023/08/18 07:36:42;;;;;;;3.58;1.85;;;;;;;32.90;35.48;99677.28;5113177;28;20027;-86
2023/08/18 07:39:10;;;;;;;2.78;1.83;;;;;;;33.20;35.21;99673.09;5111486;28;20024;-83
2023/08/18 07:41:43;;;;;;;1.80;1.50;;;;;;;33.72;32.90;99688.28;5112269;28;20059;-86
2023/08/18 07:44:08;;;;;;;3.80;1.40;;;;;;;33.82;34.15;99637.00;5093248;28;20058;-87
2023/08/18 07:46:34;;;;;;;6.38;1.67;;;;;;;33.82;33.66;99672.53;5112795;28;20040;-84
2023/08/18 07:49:00;;;;;;;4.88;2.75;;;;;;;33.73;32.84;99651.72;5111909;28;20845;-85
2023/08/18 07:51:26;;;;;;;1.42;1.17;;;;;;;33.98;32.87;99632.50;5111701;28;20035;-84
2023/08/18 07:53:51;;;;;;;2.45;1.73;;;;;;;34.52;32.38;99660.00;5112128;28;20062;-87
2023/08/18 07:56:17;;;;;;;2.03;1.23;;;;;;;34.29;32.53;99679.09;5112222;28;20036;-87
2023/08/18 07:58:42;;;;;;;2.88;2.00;;;;;;;34.34;32.40;99673.97;5112443;28;20028;-88
2023/08/18 08:01:08;;;;;;;5.13;1.73;;;;;;;34.85;31.55;99661.72;5112655;28;20027;-87
2023/08/18 08:03:35;;;;;;;2.65;1.35;;;;;;;34.97;30.40;99671.22;5112635;28;20028;-87
2023/08/18 08:06:01;;;;;;;6.63;2.70;;;;;;;35.43;30.89;99678.59;5112109;28;20030;-95
2023/08/18 08:08:26;;;;;;;1.70;1.20;;;;;;;35.20;31.04;99654.75;5114309;28;20464;-96
2023/08/18 08:10:52;;;;;;;3.33;1.25;;;;;;;34.94;30.69;99657.88;5094976;28;20112;-93
2023/08/18 08:13:17;;;;;;;2.78;1.60;;;;;;;34.70;30.70;99689.00;5112147;28;20051;-95
2023/08/18 08:15:45;;;;;;;1.50;1.15;;;;;;;34.74;30.97;99652.00;5113021;28;20109;-88
2023/08/18 08:18:13;;;;;;;3.15;1.58;;;;;;;35.07;30.62;99668.25;5112233;28;20027;-93
2023/08/18 08:21:01;;;;;;;4.13;1.55;;;;;;;35.08;30.33;99673.56;5095036;28;20046;-95
2023/08/18 08:23:26;;;;;;;2.63;2.25;;;;;;;35.39;31.57;99653.44;5093366;28;20040;-89
2023/08/18 08:25:52;;;;;;;3.30;1.45;;;;;;;35.62;30.37;99650.66;5112141;28;20031;-86
2023/08/18 08:28:17;;;;;;;2.47;1.38;;;;;;;35.57;30.28;99649.50;5111605;28;20503;-87
2023/08/18 08:30:44;;;;;;;4.05;2.15;;;;;;;35.63;31.05;99637.78;5111580;28;20770;-87
2023/08/18 08:33:11;;;;;;;2.97;1.73;;;;;;;35.06;30.73;99596.13;5112041;28;20054;-89
2023/08/18 08:35:37;;;;;;;9.82;2.72;;;;;;;35.20;30.25;99610.06;5112020;28;20027;-87
2023/08/18 08:38:03;;;;;;;2.97;1.95;;;;;;;35.02;31.04;99614.00;5111105;28;20024;-89
2023/08/18 08:40:28;;;;;;;2.47;1.45;;;;;;;35.26;29.71;99636.78;5112066;28;20038;-86
2023/08/18 08:42:56;;;;;;;1.98;1.33;;;;;;;35.63;29.65;99655.09;5111380;28;20028;-85
2023/08/18 08:45:23;;;;;;;6.57;3.42;;;;;;;35.48;28.93;99624.03;5111025;28;20130;-89
2023/08/18 08:47:50;;;;;;;4.82;4.05;;;;;;;35.80;28.90;99620.13;5111183;28;20097;-87
2023/08/18 08:50:20;;;;;;;3.55;2.55;;;;;;;36.15;28.37;99625.06;5110769;28;20077;-86
2023/08/18 08:52:50;;;;;;;5.18;3.85;;;;;;;35.80;28.79;99597.34;5110865;28;20030;-88
2023/08/18 08:55:20;;;;;;;3.63;2.63;;;;;;;35.98;29.49;99628.00;5110402;28;20024;-88
2023/08/18 08:57:47;;;;;;;12.68;2.70;;;;;;;35.73;29.42;99626.53;5110704;28;20181;-88
2023/08/18 09:00:14;;;;;;;3.58;1.70;;;;;;;35.95;28.88;99616.56;5110334;28;20032;-85
2023/08/18 09:02:42;;;;;;;2.72;1.48;;;;;;;35.74;28.55;99644.69;5091231;28;20486;-87
2023/08/18 09:05:10;;;;;;;1.38;1.20;;;;;;;35.43;29.27;99612.78;5090158;28;20504;-89
2023/08/18 09:07:35;;;;;;;3.80;1.40;;;;;;;34.90;28.89;99575.22;5090183;28;20032;-87
2023/08/18 09:10:01;;;;;;;3.00;2.08;;;;;;;34.90;29.26;99623.69;5090263;28;20508;-87
2023/08/18 09:12:30;;;;;;;3.53;1.50;;;;;;;35.22;29.32;99597.03;5090107;28;20024;-88
2023/08/18 09:14:56;;;;;;;1.50;1.20;;;;;;;35.82;28.76;99614.47;5071223;28;20749;-88
2023/08/18 09:17:25;;;;;;;2.55;1.60;;;;;;;36.17;28.37;99610.06;5090246;28;20055;-87
2023/08/18 09:19:50;;;;;;;2.60;1.52;;;;;;;36.17;28.18;99618.31;5090402;28;20028;-88
2023/08/18 09:22:23;;;;;;;2.45;1.83;;;;;;;36.15;28.65;99590.22;5093162;28;20035;-88
2023/08/18 09:24:51;;;;;;;7.13;1.83;;;;;;;35.81;28.63;99588.09;5110314;28;20338;-91
2023/08/18 09:27:17;;;;;;;1.77;1.23;;;;;;;36.20;29.05;99589.63;5110970;28;20078;-84
2023/08/18 09:29:43;;;;;;;1.73;1.23;;;;;;;35.36;29.19;99555.13;5099540;28;20164;-91
2023/08/18 09:32:09;;;;;;;2.97;2.30;;;;;;;36.10;29.17;99609.16;5119902;27;20028;-85
2023/08/18 09:34:44;;;;;;;3.35;1.48;;;;;;;35.66;28.69;99590.78;5100878;28;20417;-88
2023/08/18 09:37:10;;;;;;;1.00;0.93;;;;;;;35.63;28.09;99571.97;5088851;28;20245;-89
2023/08/18 09:39:35;;;;;;;4.00;1.95;;;;;;;35.53;28.67;99583.22;5090183;28;20549;-88
2023/08/18 09:42:02;;;;;;;5.97;1.85;;;;;;;35.53;29.12;99598.81;5106885;28;20452;-88
2023/08/18 09:44:28;;;;;;;1.33;1.05;;;;;;;35.65;28.92;99586.31;5109653;28;20481;-91
2023/08/18 09:46:57;;;;;;;3.65;1.75;;;;;;;35.23;29.05;99550.22;5077853;28;20046;-88
2023/08/18 09:49:23;;;;;;;1.90;1.20;;;;;;;35.09;28.52;99611.34;5110164;28;20035;-88
2023/08/18 09:52:01;;;;;;;1.38;1.27;;;;;;;34.62;29.16;99594.06;5104960;28;20036;-89
2023/08/18 09:54:30;;;;;;;1.85;1.35;;;;;;;34.46;29.50;99562.16;5089315;28;20028;-89
2023/08/18 09:57:02;;;;;;;3.45;1.52;;;;;;;34.30;29.78;99578.69;5090662;28;20115;-90
2023/08/18 09:59:34;;;;;;;3.47;1.55;;;;;;;34.42;29.54;99574.50;5076809;28;20035;-90
2023/08/18 10:02:01;;;;;;;1.27;1.02;;;;;;;33.81;29.29;99555.13;5113096;28;20058;-83
2023/08/18 10:04:26;;;;;;;2.75;1.67;;;;;;;34.02;29.69;99599.13;5112418;28;20077;-85
2023/08/18 10:06:53;;;;;;;5.43;1.80;;;;;;;34.04;30.10;99598.97;5113668;28;20023;-87
2023/08/18 10:09:22;;;;;;;3.40;1.80;;;;;;;34.07;30.00;99585.75;5113667;28;20027;-87
2023/08/18 10:11:49;;;;;;;1.45;1.23;;;;;;;34.38;30.20;99592.31;5105854;28;20139;-89
2023/08/18 10:14:15;;;;;;;3.80;2.42;;;;;;;34.27;30.25;99543.47;5099777;28;20032;-88
2023/08/18 10:16:42;;;;;;;1.88;1.08;;;;;;;34.99;29.51;99592.44;5089197;28;20047;-88
2023/08/18 10:19:08;;;;;;;9.43;1.65;;;;;;;35.22;30.44;99588.78;5088941;28;20032;-90
2023/08/18 10:21:34;;;;;;;0.90;0.82;;;;;;;34.59;29.06;99564.31;5089274;28;20051;-88
2023/08/18 10:24:02;;;;;;;2.85;1.40;;;;;;;34.48;30.18;99567.44;5088686;28;20620;-89
2023/08/18 10:26:29;;;;;;;7.15;1.50;;;;;;;34.71;29.91;99543.66;5104073;28;20027;-89
2023/08/18 10:29:13;;;;;;;4.38;1.80;;;;;;;34.93;29.99;99558.41;5106186;28;20768;-95
2023/08/18 10:31:46;;;;;;;2.53;1.35;;;;;;;34.71;30.03;99549.16;5107641;28;20032;-91
2023/08/18 10:34:20;;;;;;;3.20;1.40;;;;;;;34.75;29.32;99539.53;5070633;28;20043;-91
2023/08/18 10:36:45;;;;;;;1.48;1.20;;;;;;;34.66;29.52;99546.09;5073088;28;20048;-92
2023/08/18 10:39:22;;;;;;;1.73;1.42;;;;;;;34.85;28.71;99535.69;5100089;28;20034;-90
2023/08/18 10:42:06;;;;;;;2.35;1.80;;;;;;;34.73;27.64;99555.28;5070684;28;20457;-87
2023/08/18 10:44:31;;;;;;;1.70;1.42;;;;;;;34.82;27.17;99574.41;5106445;28;20106;-89
2023/08/18 10:46:57;;;;;;;12.75;1.77;;;;;;;34.60;27.08;99549.56;5106426;27;20115;-84
2023/08/18 10:49:23;;;;;;;2.38;1.67;;;;;;;34.61;26.94;99554.00;5093925;28;20486;-89
2023/08/18 10:51:49;;;;;;;0.80;0.80;;;;;;;34.69;27.32;99566.78;5093207;28;20036;-88
2023/08/18 10:54:15;;;;;;;0.65;0.65;;;;;;;34.87;26.72;99575.56;5092080;28;20036;-88
2023/08/18 10:56:40;;;;;;;1.40;1.08;;;;;;;34.86;27.26;99567.53;5093092;28;20105;-88
2023/08/18 10:59:05;;;;;;;1.17;0.85;;;;;;;34.97;27.55;99561.63;5092618;28;20062;-87
2023/08/18 11:01:31;;;;;;;1.90;1.20;;;;;;;34.40;28.19;99552.78;5092116;28;20024;-87
2023/08/18 11:03:57;;;;;;;1.25;1.05;;;;;;;34.32;27.25;99530.91;5091723;28;20020;-88
2023/08/18 11:06:26;;;;;;;1.65;1.08;;;;;;;34.71;27.67;99535.44;5092277;28;20161;-84
2023/08/18 11:08:53;;;;;;;2.35;1.60;;;;;;;34.55;28.16;99514.50;5093014;28;20489;-89
2023/08/18 11:11:20;;;;;;;1.50;0.85;;;;;;;34.59;28.13;99545.13;5092463;28;20028;-88
2023/08/18 11:13:46;;;;;;;1.75;1.25;;;;;;;34.87;28.28;99544.59;5092152;28;20062;-89
2023/08/18 11:16:13;;;;;;;1.48;0.82;;;;;;;34.53;27.87;99527.53;5092290;28;20048;-89
2023/08/18 11:18:41;;;;;;;1.20;0.80;;;;;;;34.56;27.79;99553.72;5091870;28;20032;-89
2023/08/18 11:21:07;;;;;;;2.05;1.45;;;;;;;34.80;27.76;99539.00;5092125;28;20107;-88
2023/08/18 11:23:34;;;;;;;1.23;0.88;;;;;;;34.93;27.50;99541.13;5092600;28;20032;-87
2023/08/18 11:25:59;;;;;;;3.42;1.80;;;;;;;34.73;27.53;99554.44;5092042;28;20093;-87
2023/08/18 11:28:25;;;;;;;3.78;1.48;;;;;;;34.94;27.00;99542.81;5092194;28;20016;-90
2023/08/18 11:30:53;;;;;;;2.05;1.45;;;;;;;35.14;27.16;99530.31;5092082;28;20106;-87
2023/08/18 11:33:20;;;;;;;5.43;2.38;;;;;;;35.02;27.41;99512.63;5092074;28;20067;-90
2023/08/18 11:35:45;;;;;;;3.30;1.10;;;;;;;35.21;28.21;99522.19;5095466;28;20061;-91
2023/08/18 11:38:11;;;;;;;1.02;0.93;;;;;;;35.17;27.42;99520.00;5091609;28;20138;-87
2023/08/18 11:40:42;;;;;;;4.07;1.25;;;;;;;34.91;26.37;99529.47;5102839;28;20023;-87
2023/08/18 11:43:12;;;;;;;3.10;1.75;;;;;;;34.78;26.81;99498.09;5093863;28;20024;-87
2023/08/18 11:45:38;;;;;;;1.65;1.15;;;;;;;35.36;27.46;99537.81;5091929;28;20028;-89
2023/08/18 11:48:05;;;;;;;1.83;1.15;;;;;;;35.26;27.53;99543.56;5105714;28;20035;-87
2023/08/18 11:50:38;;;;;;;10.40;1.90;;;;;;;34.93;26.73;99478.94;5091799;28;20060;-87